sensor_id;sensor_type;location;lat;lon;timestamp;P1;durP1;ratioP1;P2;durP2;ratioP2
19251;SDS011;9760;50.944;5.304;2023-03-01T00:01:48;10.97;;;6.40;;
19251;SDS011;9760;50.944;5.304;2023-03-01T00:04:13;15.27;;;6.53;;
19251;SDS011;9760;50.944;5.304;2023-03-01T00:06:39;11.03;;;6.20;;
19251;SDS011;9760;50.944;5.304;2023-03-01T00:09:05;12.87;;;6.23;;
19251;SDS011;9760;50.944;5.304;2023-03-01T00:11:31;15.67;;;7.00;;
19251;SDS011;9760;50.944;5.304;2023-03-01T00:13:58;11.53;;;6.33;;
19251;SDS011;9760;50.944;5.304;2023-03-01T00:16:33;18.40;;;6.70;;
19251;SDS011;9760;50.944;5.304;2023-03-01T00:19:01;16.27;;;6.97;;
19251;SDS011;9760;50.944;5.304;2023-03-01T00:21:27;16.30;;;7.10;;
19251;SDS011;9760;50.944;5.304;2023-03-01T00:23:55;16.93;;;6.93;;
19251;SDS011;9760;50.944;5.304;2023-03-01T00:26:21;15.67;;;6.30;;
19251;SDS011;9760;50.944;5.304;2023-03-01T00:28:48;13.90;;;6.80;;
19251;SDS011;9760;50.944;5.304;2023-03-01T00:31:15;16.00;;;7.23;;
19251;SDS011;9760;50.944;5.304;2023-03-01T00:33:43;14.07;;;6.67;;
19251;SDS011;9760;50.944;5.304;2023-03-01T00:36:09;13.27;;;6.80;;
19251;SDS011;9760;50.944;5.304;2023-03-01T00:38:37;15.60;;;6.73;;
19251;SDS011;9760;50.944;5.304;2023-03-01T00:41:05;16.47;;;6.77;;
19251;SDS011;9760;50.944;5.304;2023-03-01T00:43:32;13.63;;;6.60;;
19251;SDS011;9760;50.944;5.304;2023-03-01T00:46:01;12.87;;;5.97;;
19251;SDS011;9760;50.944;5.304;2023-03-01T00:48:28;14.73;;;6.37;;
19251;SDS011;9760;50.944;5.304;2023-03-01T00:50:53;12.07;;;6.87;;
19251;SDS011;9760;50.944;5.304;2023-03-01T00:53:19;10.73;;;6.23;;
19251;SDS011;9760;50.944;5.304;2023-03-01T00:55:44;15.60;;;6.57;;
19251;SDS011;9760;50.944;5.304;2023-03-01T00:58:10;17.13;;;6.53;;
19251;SDS011;9760;50.944;5.304;2023-03-01T01:00:36;12.60;;;6.07;;
19251;SDS011;9760;50.944;5.304;2023-03-01T01:03:01;15.07;;;6.57;;
19251;SDS011;9760;50.944;5.304;2023-03-01T01:05:27;11.57;;;6.17;;
19251;SDS011;9760;50.944;5.304;2023-03-01T01:07:52;13.93;;;6.87;;
19251;SDS011;9760;50.944;5.304;2023-03-01T01:10:18;10.30;;;6.03;;
19251;SDS011;9760;50.944;5.304;2023-03-01T01:12:44;15.10;;;6.50;;
19251;SDS011;9760;50.944;5.304;2023-03-01T01:15:11;15.73;;;7.03;;
19251;SDS011;9760;50.944;5.304;2023-03-01T01:17:39;12.50;;;6.53;;
19251;SDS011;9760;50.944;5.304;2023-03-01T01:20:05;19.10;;;6.60;;
19251;SDS011;9760;50.944;5.304;2023-03-01T01:22:31;16.83;;;6.13;;
19251;SDS011;9760;50.944;5.304;2023-03-01T01:24:56;10.87;;;6.30;;
19251;SDS011;9760;50.944;5.304;2023-03-01T01:27:22;14.37;;;7.00;;
19251;SDS011;9760;50.944;5.304;2023-03-01T01:29:48;11.40;;;6.60;;
19251;SDS011;9760;50.944;5.304;2023-03-01T01:32:13;14.40;;;6.70;;
19251;SDS011;9760;50.944;5.304;2023-03-01T01:34:39;15.20;;;6.60;;
19251;SDS011;9760;50.944;5.304;2023-03-01T01:37:04;16.17;;;7.13;;
19251;SDS011;9760;50.944;5.304;2023-03-01T01:39:32;14.80;;;6.83;;
19251;SDS011;9760;50.944;5.304;2023-03-01T01:42:00;14.83;;;6.90;;
19251;SDS011;9760;50.944;5.304;2023-03-01T01:44:27;12.07;;;6.73;;
19251;SDS011;9760;50.944;5.304;2023-03-01T01:46:57;17.23;;;7.07;;
19251;SDS011;9760;50.944;5.304;2023-03-01T01:52:05;15.73;;;6.87;;
19251;SDS011;9760;50.944;5.304;2023-03-01T01:54:42;11.73;;;6.47;;
19251;SDS011;9760;50.944;5.304;2023-03-01T01:57:14;14.33;;;7.20;;
19251;SDS011;9760;50.944;5.304;2023-03-01T01:59:52;15.73;;;7.20;;
19251;SDS011;9760;50.944;5.304;2023-03-01T02:02:23;17.23;;;6.60;;
19251;SDS011;9760;50.944;5.304;2023-03-01T02:04:49;11.90;;;6.43;;
19251;SDS011;9760;50.944;5.304;2023-03-01T02:07:26;12.50;;;6.70;;
19251;SDS011;9760;50.944;5.304;2023-03-01T02:09:52;13.00;;;6.63;;
19251;SDS011;9760;50.944;5.304;2023-03-01T02:12:19;15.93;;;7.20;;
19251;SDS011;9760;50.944;5.304;2023-03-01T02:14:47;17.00;;;7.47;;
19251;SDS011;9760;50.944;5.304;2023-03-01T02:17:14;15.17;;;7.53;;
19251;SDS011;9760;50.944;5.304;2023-03-01T02:22:32;11.93;;;6.70;;
19251;SDS011;9760;50.944;5.304;2023-03-01T02:27:49;16.37;;;6.57;;
19251;SDS011;9760;50.944;5.304;2023-03-01T02:30:33;14.30;;;6.80;;
19251;SDS011;9760;50.944;5.304;2023-03-01T02:32:59;13.50;;;6.77;;
19251;SDS011;9760;50.944;5.304;2023-03-01T02:35:33;12.03;;;7.07;;
19251;SDS011;9760;50.944;5.304;2023-03-01T02:38:02;16.47;;;7.47;;
19251;SDS011;9760;50.944;5.304;2023-03-01T02:40:31;28.90;;;7.83;;
19251;SDS011;9760;50.944;5.304;2023-03-01T02:42:59;12.33;;;7.27;;
19251;SDS011;9760;50.944;5.304;2023-03-01T02:45:26;17.00;;;7.93;;
19251;SDS011;9760;50.944;5.304;2023-03-01T02:47:56;14.57;;;6.87;;
19251;SDS011;9760;50.944;5.304;2023-03-01T02:50:25;15.23;;;8.20;;
19251;SDS011;9760;50.944;5.304;2023-03-01T02:53:15;11.90;;;7.20;;
19251;SDS011;9760;50.944;5.304;2023-03-01T02:55:48;16.47;;;7.77;;
19251;SDS011;9760;50.944;5.304;2023-03-01T02:58:14;14.43;;;7.30;;
19251;SDS011;9760;50.944;5.304;2023-03-01T03:00:40;13.97;;;7.03;;
19251;SDS011;9760;50.944;5.304;2023-03-01T03:03:15;13.73;;;7.47;;
19251;SDS011;9760;50.944;5.304;2023-03-01T03:05:45;15.73;;;7.70;;
19251;SDS011;9760;50.944;5.304;2023-03-01T03:08:10;15.13;;;6.93;;
19251;SDS011;9760;50.944;5.304;2023-03-01T03:10:38;12.60;;;7.07;;
19251;SDS011;9760;50.944;5.304;2023-03-01T03:13:09;15.43;;;7.20;;
19251;SDS011;9760;50.944;5.304;2023-03-01T03:15:40;15.27;;;6.97;;
19251;SDS011;9760;50.944;5.304;2023-03-01T03:18:08;19.30;;;7.70;;
19251;SDS011;9760;50.944;5.304;2023-03-01T03:20:35;15.80;;;7.13;;
19251;SDS011;9760;50.944;5.304;2023-03-01T03:23:02;18.40;;;7.07;;
19251;SDS011;9760;50.944;5.304;2023-03-01T03:25:28;17.53;;;7.03;;
19251;SDS011;9760;50.944;5.304;2023-03-01T03:27:54;16.27;;;7.57;;
19251;SDS011;9760;50.944;5.304;2023-03-01T03:30:25;19.00;;;8.37;;
19251;SDS011;9760;50.944;5.304;2023-03-01T03:32:52;13.33;;;7.47;;
19251;SDS011;9760;50.944;5.304;2023-03-01T03:35:19;14.97;;;7.43;;
19251;SDS011;9760;50.944;5.304;2023-03-01T03:37:44;16.30;;;8.10;;
19251;SDS011;9760;50.944;5.304;2023-03-01T03:40:35;13.63;;;7.03;;
19251;SDS011;9760;50.944;5.304;2023-03-01T03:43:04;17.83;;;7.83;;
19251;SDS011;9760;50.944;5.304;2023-03-01T03:45:35;14.43;;;8.17;;
19251;SDS011;9760;50.944;5.304;2023-03-01T03:48:01;18.00;;;7.90;;
19251;SDS011;9760;50.944;5.304;2023-03-01T03:50:29;14.73;;;7.70;;
19251;SDS011;9760;50.944;5.304;2023-03-01T03:52:55;17.67;;;8.70;;
19251;SDS011;9760;50.944;5.304;2023-03-01T03:55:20;16.50;;;8.03;;
19251;SDS011;9760;50.944;5.304;2023-03-01T03:57:47;16.57;;;8.60;;
19251;SDS011;9760;50.944;5.304;2023-03-01T04:00:17;17.43;;;7.90;;
19251;SDS011;9760;50.944;5.304;2023-03-01T04:02:44;14.40;;;7.33;;
19251;SDS011;9760;50.944;5.304;2023-03-01T04:05:12;21.03;;;8.43;;
19251;SDS011;9760;50.944;5.304;2023-03-01T04:07:39;13.73;;;7.83;;
19251;SDS011;9760;50.944;5.304;2023-03-01T04:10:07;15.83;;;8.10;;
19251;SDS011;9760;50.944;5.304;2023-03-01T04:12:35;16.13;;;8.20;;
19251;SDS011;9760;50.944;5.304;2023-03-01T04:15:01;19.20;;;8.53;;
19251;SDS011;9760;50.944;5.304;2023-03-01T04:17:41;17.63;;;8.57;;
19251;SDS011;9760;50.944;5.304;2023-03-01T04:20:11;16.83;;;8.40;;
19251;SDS011;9760;50.944;5.304;2023-03-01T04:22:39;16.23;;;8.90;;
19251;SDS011;9760;50.944;5.304;2023-03-01T04:25:05;17.83;;;7.83;;
19251;SDS011;9760;50.944;5.304;2023-03-01T04:27:33;14.30;;;8.23;;
19251;SDS011;9760;50.944;5.304;2023-03-01T04:29:59;13.53;;;7.73;;
19251;SDS011;9760;50.944;5.304;2023-03-01T04:32:25;18.67;;;8.17;;
19251;SDS011;9760;50.944;5.304;2023-03-01T04:34:50;15.77;;;8.20;;
19251;SDS011;9760;50.944;5.304;2023-03-01T04:37:16;19.60;;;8.40;;
19251;SDS011;9760;50.944;5.304;2023-03-01T04:39:41;16.07;;;8.20;;
19251;SDS011;9760;50.944;5.304;2023-03-01T04:42:10;13.17;;;7.67;;
19251;SDS011;9760;50.944;5.304;2023-03-01T04:44:39;20.63;;;8.53;;
19251;SDS011;9760;50.944;5.304;2023-03-01T04:47:05;17.07;;;8.73;;
19251;SDS011;9760;50.944;5.304;2023-03-01T04:49:31;20.60;;;9.07;;
19251;SDS011;9760;50.944;5.304;2023-03-01T04:51:57;16.23;;;8.40;;
19251;SDS011;9760;50.944;5.304;2023-03-01T04:54:33;19.63;;;8.57;;
19251;SDS011;9760;50.944;5.304;2023-03-01T04:57:00;18.20;;;9.00;;
19251;SDS011;9760;50.944;5.304;2023-03-01T04:59:27;19.73;;;8.53;;
19251;SDS011;9760;50.944;5.304;2023-03-01T05:01:53;15.50;;;8.47;;
19251;SDS011;9760;50.944;5.304;2023-03-01T05:04:25;18.83;;;8.97;;
19251;SDS011;9760;50.944;5.304;2023-03-01T05:06:51;18.53;;;8.83;;
19251;SDS011;9760;50.944;5.304;2023-03-01T05:09:18;17.70;;;8.93;;
19251;SDS011;9760;50.944;5.304;2023-03-01T05:11:44;17.07;;;8.60;;
19251;SDS011;9760;50.944;5.304;2023-03-01T05:14:10;23.00;;;9.73;;
19251;SDS011;9760;50.944;5.304;2023-03-01T05:16:36;19.83;;;8.60;;
19251;SDS011;9760;50.944;5.304;2023-03-01T05:19:02;21.90;;;9.07;;
19251;SDS011;9760;50.944;5.304;2023-03-01T05:21:36;20.50;;;9.03;;
19251;SDS011;9760;50.944;5.304;2023-03-01T05:24:24;21.70;;;9.30;;
19251;SDS011;9760;50.944;5.304;2023-03-01T05:26:50;23.07;;;9.43;;
19251;SDS011;9760;50.944;5.304;2023-03-01T05:29:19;21.00;;;8.63;;
19251;SDS011;9760;50.944;5.304;2023-03-01T05:31:50;20.33;;;8.73;;
19251;SDS011;9760;50.944;5.304;2023-03-01T05:34:24;16.50;;;8.43;;
19251;SDS011;9760;50.944;5.304;2023-03-01T05:36:50;23.17;;;8.83;;
19251;SDS011;9760;50.944;5.304;2023-03-01T05:39:18;21.27;;;9.60;;
19251;SDS011;9760;50.944;5.304;2023-03-01T05:41:46;19.07;;;8.73;;
19251;SDS011;9760;50.944;5.304;2023-03-01T05:44:11;17.47;;;8.97;;
19251;SDS011;9760;50.944;5.304;2023-03-01T05:46:37;23.57;;;9.27;;
19251;SDS011;9760;50.944;5.304;2023-03-01T05:49:03;21.43;;;9.83;;
19251;SDS011;9760;50.944;5.304;2023-03-01T05:51:29;22.57;;;8.97;;
19251;SDS011;9760;50.944;5.304;2023-03-01T05:53:55;17.53;;;8.93;;
19251;SDS011;9760;50.944;5.304;2023-03-01T05:56:20;23.17;;;9.53;;
19251;SDS011;9760;50.944;5.304;2023-03-01T05:58:47;25.80;;;9.07;;
19251;SDS011;9760;50.944;5.304;2023-03-01T06:01:14;22.23;;;8.97;;
19251;SDS011;9760;50.944;5.304;2023-03-01T06:03:40;19.43;;;9.27;;
19251;SDS011;9760;50.944;5.304;2023-03-01T06:06:05;17.60;;;8.70;;
19251;SDS011;9760;50.944;5.304;2023-03-01T06:08:31;18.07;;;9.27;;
19251;SDS011;9760;50.944;5.304;2023-03-01T06:10:57;22.50;;;9.30;;
19251;SDS011;9760;50.944;5.304;2023-03-01T06:13:22;17.63;;;9.37;;
19251;SDS011;9760;50.944;5.304;2023-03-01T06:15:49;19.03;;;10.00;;
19251;SDS011;9760;50.944;5.304;2023-03-01T06:18:14;20.33;;;8.77;;
19251;SDS011;9760;50.944;5.304;2023-03-01T06:20:40;20.30;;;8.90;;
19251;SDS011;9760;50.944;5.304;2023-03-01T06:23:06;21.87;;;9.77;;
19251;SDS011;9760;50.944;5.304;2023-03-01T06:25:32;18.80;;;8.70;;
19251;SDS011;9760;50.944;5.304;2023-03-01T06:27:57;18.23;;;9.57;;
19251;SDS011;9760;50.944;5.304;2023-03-01T06:30:24;21.33;;;8.47;;
19251;SDS011;9760;50.944;5.304;2023-03-01T06:32:50;24.90;;;10.27;;
19251;SDS011;9760;50.944;5.304;2023-03-01T06:35:17;28.90;;;9.33;;
19251;SDS011;9760;50.944;5.304;2023-03-01T06:37:43;20.13;;;9.47;;
19251;SDS011;9760;50.944;5.304;2023-03-01T06:40:10;19.73;;;10.03;;
19251;SDS011;9760;50.944;5.304;2023-03-01T06:42:36;20.87;;;9.50;;
19251;SDS011;9760;50.944;5.304;2023-03-01T06:45:04;21.50;;;8.77;;
19251;SDS011;9760;50.944;5.304;2023-03-01T06:47:30;27.90;;;9.33;;
19251;SDS011;9760;50.944;5.304;2023-03-01T06:49:58;21.53;;;10.10;;
19251;SDS011;9760;50.944;5.304;2023-03-01T06:52:24;23.10;;;10.77;;
19251;SDS011;9760;50.944;5.304;2023-03-01T06:54:49;23.80;;;11.23;;
19251;SDS011;9760;50.944;5.304;2023-03-01T06:57:15;20.63;;;9.93;;
19251;SDS011;9760;50.944;5.304;2023-03-01T06:59:40;20.40;;;9.57;;
19251;SDS011;9760;50.944;5.304;2023-03-01T07:02:08;20.93;;;9.73;;
19251;SDS011;9760;50.944;5.304;2023-03-01T07:04:38;18.70;;;9.80;;
19251;SDS011;9760;50.944;5.304;2023-03-01T07:07:04;26.13;;;10.27;;
19251;SDS011;9760;50.944;5.304;2023-03-01T07:09:29;24.47;;;10.83;;
19251;SDS011;9760;50.944;5.304;2023-03-01T07:11:55;21.20;;;10.30;;
19251;SDS011;9760;50.944;5.304;2023-03-01T07:14:22;31.67;;;11.03;;
19251;SDS011;9760;50.944;5.304;2023-03-01T07:16:49;28.77;;;10.70;;
19251;SDS011;9760;50.944;5.304;2023-03-01T07:19:15;19.97;;;9.87;;
19251;SDS011;9760;50.944;5.304;2023-03-01T07:21:40;25.83;;;9.97;;
19251;SDS011;9760;50.944;5.304;2023-03-01T07:24:06;24.83;;;11.27;;
19251;SDS011;9760;50.944;5.304;2023-03-01T07:26:32;30.13;;;10.73;;
19251;SDS011;9760;50.944;5.304;2023-03-01T07:28:59;19.03;;;9.73;;
19251;SDS011;9760;50.944;5.304;2023-03-01T07:31:25;25.13;;;9.43;;
19251;SDS011;9760;50.944;5.304;2023-03-01T07:33:53;29.53;;;10.07;;
19251;SDS011;9760;50.944;5.304;2023-03-01T07:36:19;26.07;;;10.13;;
19251;SDS011;9760;50.944;5.304;2023-03-01T07:38:45;22.73;;;10.23;;
19251;SDS011;9760;50.944;5.304;2023-03-01T07:41:11;18.53;;;8.80;;
19251;SDS011;9760;50.944;5.304;2023-03-01T07:43:37;27.17;;;9.60;;
19251;SDS011;9760;50.944;5.304;2023-03-01T07:46:03;21.17;;;9.70;;
19251;SDS011;9760;50.944;5.304;2023-03-01T07:48:29;27.13;;;10.73;;
19251;SDS011;9760;50.944;5.304;2023-03-01T07:51:03;30.50;;;10.07;;
19251;SDS011;9760;50.944;5.304;2023-03-01T07:53:30;23.60;;;10.37;;
19251;SDS011;9760;50.944;5.304;2023-03-01T07:56:03;25.03;;;9.80;;
19251;SDS011;9760;50.944;5.304;2023-03-01T07:58:31;19.63;;;10.03;;
19251;SDS011;9760;50.944;5.304;2023-03-01T08:01:02;20.03;;;9.80;;
19251;SDS011;9760;50.944;5.304;2023-03-01T08:03:29;24.70;;;9.73;;
19251;SDS011;9760;50.944;5.304;2023-03-01T08:05:55;23.93;;;10.10;;
19251;SDS011;9760;50.944;5.304;2023-03-01T08:08:20;23.37;;;9.83;;
19251;SDS011;9760;50.944;5.304;2023-03-01T08:10:46;22.50;;;9.17;;
19251;SDS011;9760;50.944;5.304;2023-03-01T08:13:12;19.87;;;9.43;;
19251;SDS011;9760;50.944;5.304;2023-03-01T08:15:37;23.47;;;9.60;;
19251;SDS011;9760;50.944;5.304;2023-03-01T08:18:03;20.60;;;9.37;;
19251;SDS011;9760;50.944;5.304;2023-03-01T08:20:29;20.80;;;9.77;;
19251;SDS011;9760;50.944;5.304;2023-03-01T08:22:54;25.97;;;10.17;;
19251;SDS011;9760;50.944;5.304;2023-03-01T08:25:20;20.67;;;10.20;;
19251;SDS011;9760;50.944;5.304;2023-03-01T08:27:45;27.77;;;8.83;;
19251;SDS011;9760;50.944;5.304;2023-03-01T08:30:11;20.50;;;10.17;;
19251;SDS011;9760;50.944;5.304;2023-03-01T08:32:38;18.67;;;9.00;;
19251;SDS011;9760;50.944;5.304;2023-03-01T08:35:04;19.47;;;9.23;;
19251;SDS011;9760;50.944;5.304;2023-03-01T08:37:30;21.10;;;9.33;;
19251;SDS011;9760;50.944;5.304;2023-03-01T08:39:57;28.57;;;9.90;;
19251;SDS011;9760;50.944;5.304;2023-03-01T08:42:24;21.07;;;9.87;;
19251;SDS011;9760;50.944;5.304;2023-03-01T08:44:49;17.90;;;9.20;;
19251;SDS011;9760;50.944;5.304;2023-03-01T08:47:15;17.03;;;9.70;;
19251;SDS011;9760;50.944;5.304;2023-03-01T08:49:40;19.53;;;9.63;;
19251;SDS011;9760;50.944;5.304;2023-03-01T08:52:07;16.57;;;8.90;;
19251;SDS011;9760;50.944;5.304;2023-03-01T08:54:33;20.97;;;9.57;;
19251;SDS011;9760;50.944;5.304;2023-03-01T08:57:00;19.17;;;8.80;;
19251;SDS011;9760;50.944;5.304;2023-03-01T08:59:27;23.00;;;9.50;;
19251;SDS011;9760;50.944;5.304;2023-03-01T09:01:54;22.07;;;9.37;;
19251;SDS011;9760;50.944;5.304;2023-03-01T09:04:20;19.13;;;10.07;;
19251;SDS011;9760;50.944;5.304;2023-03-01T09:06:46;18.13;;;8.90;;
19251;SDS011;9760;50.944;5.304;2023-03-01T09:09:14;18.53;;;9.07;;
19251;SDS011;9760;50.944;5.304;2023-03-01T09:11:41;18.70;;;8.60;;
19251;SDS011;9760;50.944;5.304;2023-03-01T09:14:08;19.33;;;9.17;;
19251;SDS011;9760;50.944;5.304;2023-03-01T09:16:34;20.40;;;8.70;;
19251;SDS011;9760;50.944;5.304;2023-03-01T09:19:01;19.40;;;9.20;;
19251;SDS011;9760;50.944;5.304;2023-03-01T09:21:27;25.33;;;8.63;;
19251;SDS011;9760;50.944;5.304;2023-03-01T09:23:53;17.70;;;8.87;;
19251;SDS011;9760;50.944;5.304;2023-03-01T09:26:22;20.47;;;9.63;;
19251;SDS011;9760;50.944;5.304;2023-03-01T09:28:48;21.47;;;8.73;;
19251;SDS011;9760;50.944;5.304;2023-03-01T09:31:16;23.27;;;8.40;;
19251;SDS011;9760;50.944;5.304;2023-03-01T09:33:44;22.03;;;9.00;;
19251;SDS011;9760;50.944;5.304;2023-03-01T09:36:13;16.30;;;8.87;;
19251;SDS011;9760;50.944;5.304;2023-03-01T09:38:44;24.57;;;8.53;;
19251;SDS011;9760;50.944;5.304;2023-03-01T09:41:10;20.17;;;8.57;;
19251;SDS011;9760;50.944;5.304;2023-03-01T09:43:48;25.20;;;9.60;;
19251;SDS011;9760;50.944;5.304;2023-03-01T09:46:19;19.13;;;8.97;;
19251;SDS011;9760;50.944;5.304;2023-03-01T09:51:23;19.23;;;9.33;;
19251;SDS011;9760;50.944;5.304;2023-03-01T09:53:57;17.53;;;8.57;;
19251;SDS011;9760;50.944;5.304;2023-03-01T09:56:44;28.03;;;9.67;;
19251;SDS011;9760;50.944;5.304;2023-03-01T09:59:30;19.27;;;8.50;;
19251;SDS011;9760;50.944;5.304;2023-03-01T10:04:51;16.97;;;8.13;;
19251;SDS011;9760;50.944;5.304;2023-03-01T10:10:02;18.87;;;9.13;;
19251;SDS011;9760;50.944;5.304;2023-03-01T10:12:35;28.80;;;10.53;;
19251;SDS011;9760;50.944;5.304;2023-03-01T10:15:07;22.57;;;8.13;;
19251;SDS011;9760;50.944;5.304;2023-03-01T10:22:50;18.03;;;8.80;;
19251;SDS011;9760;50.944;5.304;2023-03-01T10:28:06;18.93;;;9.30;;
19251;SDS011;9760;50.944;5.304;2023-03-01T10:30:44;22.20;;;9.47;;
19251;SDS011;9760;50.944;5.304;2023-03-01T10:33:20;20.33;;;8.50;;
19251;SDS011;9760;50.944;5.304;2023-03-01T10:35:51;19.43;;;9.27;;
19251;SDS011;9760;50.944;5.304;2023-03-01T10:38:17;16.57;;;9.13;;
19251;SDS011;9760;50.944;5.304;2023-03-01T10:43:23;17.33;;;9.43;;
19251;SDS011;9760;50.944;5.304;2023-03-01T10:45:57;20.77;;;8.73;;
19251;SDS011;9760;50.944;5.304;2023-03-01T10:48:23;23.97;;;9.43;;
19251;SDS011;9760;50.944;5.304;2023-03-01T10:53:23;17.53;;;9.27;;
19251;SDS011;9760;50.944;5.304;2023-03-01T10:56:03;17.10;;;9.33;;
19251;SDS011;9760;50.944;5.304;2023-03-01T10:58:39;15.83;;;8.57;;
19251;SDS011;9760;50.944;5.304;2023-03-01T11:01:23;16.10;;;9.27;;
19251;SDS011;9760;50.944;5.304;2023-03-01T11:04:03;18.97;;;8.70;;
19251;SDS011;9760;50.944;5.304;2023-03-01T11:06:37;19.67;;;9.33;;
19251;SDS011;9760;50.944;5.304;2023-03-01T11:11:40;17.87;;;9.43;;
19251;SDS011;9760;50.944;5.304;2023-03-01T11:14:07;19.87;;;9.23;;
19251;SDS011;9760;50.944;5.304;2023-03-01T11:16:39;18.37;;;9.10;;
19251;SDS011;9760;50.944;5.304;2023-03-01T11:21:36;18.33;;;8.87;;
19251;SDS011;9760;50.944;5.304;2023-03-01T11:24:10;18.97;;;8.47;;
19251;SDS011;9760;50.944;5.304;2023-03-01T11:26:56;16.93;;;8.93;;
19251;SDS011;9760;50.944;5.304;2023-03-01T11:32:07;19.27;;;9.10;;
19251;SDS011;9760;50.944;5.304;2023-03-01T11:34:54;19.10;;;8.97;;
19251;SDS011;9760;50.944;5.304;2023-03-01T11:37:36;22.00;;;9.27;;
19251;SDS011;9760;50.944;5.304;2023-03-01T11:40:20;23.47;;;9.37;;
19251;SDS011;9760;50.944;5.304;2023-03-01T11:45:26;19.33;;;8.30;;
19251;SDS011;9760;50.944;5.304;2023-03-01T11:50:48;18.57;;;8.60;;
19251;SDS011;9760;50.944;5.304;2023-03-01T11:56:29;19.97;;;8.70;;
19251;SDS011;9760;50.944;5.304;2023-03-01T11:59:06;16.27;;;8.60;;
19251;SDS011;9760;50.944;5.304;2023-03-01T12:07:44;21.43;;;8.03;;
19251;SDS011;9760;50.944;5.304;2023-03-01T12:10:27;15.17;;;8.10;;
19251;SDS011;9760;50.944;5.304;2023-03-01T12:26:50;19.40;;;8.63;;
19251;SDS011;9760;50.944;5.304;2023-03-01T12:29:39;26.80;;;8.73;;
19251;SDS011;9760;50.944;5.304;2023-03-01T12:46:25;16.97;;;8.43;;
19251;SDS011;9760;50.944;5.304;2023-03-01T12:49:18;16.17;;;7.87;;
19251;SDS011;9760;50.944;5.304;2023-03-01T12:51:54;21.30;;;8.87;;
19251;SDS011;9760;50.944;5.304;2023-03-01T12:54:28;16.93;;;8.70;;
19251;SDS011;9760;50.944;5.304;2023-03-01T12:56:57;16.67;;;7.93;;
19251;SDS011;9760;50.944;5.304;2023-03-01T12:59:38;19.07;;;8.00;;
19251;SDS011;9760;50.944;5.304;2023-03-01T13:07:24;19.50;;;9.30;;
19251;SDS011;9760;50.944;5.304;2023-03-01T13:10:08;17.10;;;7.97;;
19251;SDS011;9760;50.944;5.304;2023-03-01T13:20:18;14.63;;;7.13;;
19251;SDS011;9760;50.944;5.304;2023-03-01T13:22:46;21.53;;;8.47;;
19251;SDS011;9760;50.944;5.304;2023-03-01T13:25:13;17.63;;;7.97;;
19251;SDS011;9760;50.944;5.304;2023-03-01T13:27:41;14.53;;;7.60;;
19251;SDS011;9760;50.944;5.304;2023-03-01T13:35:48;18.23;;;8.43;;
19251;SDS011;9760;50.944;5.304;2023-03-01T13:41:11;16.33;;;7.40;;
19251;SDS011;9760;50.944;5.304;2023-03-01T13:43:40;15.97;;;8.50;;
19251;SDS011;9760;50.944;5.304;2023-03-01T13:46:12;15.63;;;7.90;;
19251;SDS011;9760;50.944;5.304;2023-03-01T13:48:47;18.80;;;7.57;;
19251;SDS011;9760;50.944;5.304;2023-03-01T13:51:21;18.63;;;8.17;;
19251;SDS011;9760;50.944;5.304;2023-03-01T13:53:50;17.53;;;7.60;;
19251;SDS011;9760;50.944;5.304;2023-03-01T13:56:19;16.03;;;7.87;;
19251;SDS011;9760;50.944;5.304;2023-03-01T13:59:04;15.53;;;8.50;;
19251;SDS011;9760;50.944;5.304;2023-03-01T14:01:41;19.40;;;8.43;;
19251;SDS011;9760;50.944;5.304;2023-03-01T14:04:23;17.13;;;8.10;;
19251;SDS011;9760;50.944;5.304;2023-03-01T14:06:52;32.83;;;8.90;;
19251;SDS011;9760;50.944;5.304;2023-03-01T14:09:41;13.60;;;7.57;;
19251;SDS011;9760;50.944;5.304;2023-03-01T14:19:57;14.97;;;7.40;;
19251;SDS011;9760;50.944;5.304;2023-03-01T14:22:26;13.87;;;6.70;;
19251;SDS011;9760;50.944;5.304;2023-03-01T14:28:31;14.63;;;7.47;;
19251;SDS011;9760;50.944;5.304;2023-03-01T14:30:55;20.93;;;8.20;;
19251;SDS011;9760;50.944;5.304;2023-03-01T14:35:52;18.93;;;7.87;;
19251;SDS011;9760;50.944;5.304;2023-03-01T14:38:21;15.57;;;7.17;;
19251;SDS011;9760;50.944;5.304;2023-03-01T14:40:56;15.30;;;7.30;;
19251;SDS011;9760;50.944;5.304;2023-03-01T14:43:24;16.37;;;8.43;;
19251;SDS011;9760;50.944;5.304;2023-03-01T14:45:53;13.17;;;7.53;;
19251;SDS011;9760;50.944;5.304;2023-03-01T14:48:19;18.17;;;7.70;;
19251;SDS011;9760;50.944;5.304;2023-03-01T14:50:45;15.90;;;7.67;;
19251;SDS011;9760;50.944;5.304;2023-03-01T14:53:15;13.43;;;6.57;;
19251;SDS011;9760;50.944;5.304;2023-03-01T14:55:53;19.93;;;7.30;;
19251;SDS011;9760;50.944;5.304;2023-03-01T14:58:28;18.27;;;7.43;;
19251;SDS011;9760;50.944;5.304;2023-03-01T15:01:02;12.67;;;7.00;;
19251;SDS011;9760;50.944;5.304;2023-03-01T15:03:48;29.30;;;7.33;;
19251;SDS011;9760;50.944;5.304;2023-03-01T15:06:15;18.80;;;7.30;;
19251;SDS011;9760;50.944;5.304;2023-03-01T15:08:45;14.43;;;6.77;;
19251;SDS011;9760;50.944;5.304;2023-03-01T15:11:25;15.83;;;7.37;;
19251;SDS011;9760;50.944;5.304;2023-03-01T15:13:54;10.90;;;6.30;;
19251;SDS011;9760;50.944;5.304;2023-03-01T15:16:24;13.60;;;7.13;;
19251;SDS011;9760;50.944;5.304;2023-03-01T15:18:55;17.30;;;7.30;;
19251;SDS011;9760;50.944;5.304;2023-03-01T15:21:33;15.10;;;6.63;;
19251;SDS011;9760;50.944;5.304;2023-03-01T15:26:50;15.97;;;6.67;;
19251;SDS011;9760;50.944;5.304;2023-03-01T15:29:21;12.53;;;6.03;;
19251;SDS011;9760;50.944;5.304;2023-03-01T15:35:00;11.23;;;5.10;;
19251;SDS011;9760;50.944;5.304;2023-03-01T15:37:47;14.53;;;6.03;;
19251;SDS011;9760;50.944;5.304;2023-03-01T15:40:18;10.60;;;6.00;;
19251;SDS011;9760;50.944;5.304;2023-03-01T15:42:49;12.40;;;5.83;;
19251;SDS011;9760;50.944;5.304;2023-03-01T15:47:46;11.30;;;6.20;;
19251;SDS011;9760;50.944;5.304;2023-03-01T15:52:47;10.77;;;5.17;;
19251;SDS011;9760;50.944;5.304;2023-03-01T15:55:16;18.30;;;6.90;;
19251;SDS011;9760;50.944;5.304;2023-03-01T15:57:44;10.90;;;5.70;;
19251;SDS011;9760;50.944;5.304;2023-03-01T16:00:11;12.53;;;5.73;;
19251;SDS011;9760;50.944;5.304;2023-03-01T16:02:38;15.20;;;5.80;;
19251;SDS011;9760;50.944;5.304;2023-03-01T16:05:05;12.23;;;4.73;;
19251;SDS011;9760;50.944;5.304;2023-03-01T16:07:40;12.93;;;5.03;;
19251;SDS011;9760;50.944;5.304;2023-03-01T16:10:05;11.77;;;5.40;;
19251;SDS011;9760;50.944;5.304;2023-03-01T16:12:31;13.87;;;4.97;;
19251;SDS011;9760;50.944;5.304;2023-03-01T16:14:57;12.70;;;5.33;;
19251;SDS011;9760;50.944;5.304;2023-03-01T16:17:22;10.77;;;5.33;;
19251;SDS011;9760;50.944;5.304;2023-03-01T16:19:48;9.50;;;5.40;;
19251;SDS011;9760;50.944;5.304;2023-03-01T16:22:13;12.43;;;4.93;;
19251;SDS011;9760;50.944;5.304;2023-03-01T16:24:39;9.80;;;4.97;;
19251;SDS011;9760;50.944;5.304;2023-03-01T16:27:06;15.30;;;5.50;;
19251;SDS011;9760;50.944;5.304;2023-03-01T16:29:32;9.00;;;4.93;;
19251;SDS011;9760;50.944;5.304;2023-03-01T16:31:59;12.63;;;5.20;;
19251;SDS011;9760;50.944;5.304;2023-03-01T16:34:26;10.53;;;6.17;;
19251;SDS011;9760;50.944;5.304;2023-03-01T16:36:51;11.73;;;5.17;;
19251;SDS011;9760;50.944;5.304;2023-03-01T16:39:17;11.20;;;5.40;;
19251;SDS011;9760;50.944;5.304;2023-03-01T16:41:42;12.77;;;5.63;;
19251;SDS011;9760;50.944;5.304;2023-03-01T16:44:08;9.30;;;4.77;;
19251;SDS011;9760;50.944;5.304;2023-03-01T16:46:34;11.90;;;5.50;;
19251;SDS011;9760;50.944;5.304;2023-03-01T16:48:59;12.33;;;5.13;;
19251;SDS011;9760;50.944;5.304;2023-03-01T16:51:25;11.60;;;5.20;;
19251;SDS011;9760;50.944;5.304;2023-03-01T16:53:51;17.50;;;5.97;;
19251;SDS011;9760;50.944;5.304;2023-03-01T16:56:17;12.47;;;5.33;;
19251;SDS011;9760;50.944;5.304;2023-03-01T16:58:43;13.53;;;6.60;;
19251;SDS011;9760;50.944;5.304;2023-03-01T17:03:36;9.37;;;5.40;;
19251;SDS011;9760;50.944;5.304;2023-03-01T17:06:03;10.97;;;6.17;;
19251;SDS011;9760;50.944;5.304;2023-03-01T17:08:31;11.83;;;5.40;;